sensor_id;sensor_type;location;lat;lon;timestamp;P1;durP1;ratioP1;P2;durP2;ratioP2
5475;SDS011;2760;50.000;9.194;2022-07-23T00:02:05;8.80;;;7.90;;
5475;SDS011;2760;50.000;9.194;2022-07-23T00:04:32;9.10;;;8.20;;
5475;SDS011;2760;50.000;9.194;2022-07-23T00:06:59;9.00;;;8.07;;
5475;SDS011;2760;50.000;9.194;2022-07-23T00:09:26;9.60;;;8.57;;
5475;SDS011;2760;50.000;9.194;2022-07-23T00:11:56;7.73;;;7.03;;
5475;SDS011;2760;50.000;9.194;2022-07-23T00:14:23;10.53;;;7.33;;
5475;SDS011;2760;50.000;9.194;2022-07-23T00:16:50;9.30;;;8.00;;
5475;SDS011;2760;50.000;9.194;2022-07-23T00:19:18;9.10;;;8.20;;
5475;SDS011;2760;50.000;9.194;2022-07-23T00:21:45;8.67;;;7.77;;
5475;SDS011;2760;50.000;9.194;2022-07-23T00:24:12;9.43;;;8.43;;
5475;SDS011;2760;50.000;9.194;2022-07-23T00:26:40;10.10;;;8.47;;
5475;SDS011;2760;50.000;9.194;2022-07-23T00:29:07;11.00;;;8.40;;
5475;SDS011;2760;50.000;9.194;2022-07-23T00:31:34;8.50;;;7.70;;
5475;SDS011;2760;50.000;9.194;2022-07-23T00:34:01;10.27;;;8.23;;
5475;SDS011;2760;50.000;9.194;2022-07-23T00:36:30;10.17;;;8.20;;
5475;SDS011;2760;50.000;9.194;2022-07-23T00:38:57;8.90;;;8.00;;
5475;SDS011;2760;50.000;9.194;2022-07-23T00:41:24;9.63;;;7.87;;
5475;SDS011;2760;50.000;9.194;2022-07-23T00:43:51;9.20;;;8.30;;
5475;SDS011;2760;50.000;9.194;2022-07-23T00:46:19;8.47;;;7.67;;
5475;SDS011;2760;50.000;9.194;2022-07-23T00:48:46;9.13;;;8.30;;
5475;SDS011;2760;50.000;9.194;2022-07-23T00:51:14;9.00;;;8.10;;
5475;SDS011;2760;50.000;9.194;2022-07-23T00:53:43;9.23;;;8.07;;
5475;SDS011;2760;50.000;9.194;2022-07-23T00:56:11;14.43;;;8.77;;
5475;SDS011;2760;50.000;9.194;2022-07-23T00:58:38;13.03;;;9.10;;
5475;SDS011;2760;50.000;9.194;2022-07-23T01:01:06;9.17;;;8.27;;
5475;SDS011;2760;50.000;9.194;2022-07-23T01:03:34;10.23;;;8.90;;
5475;SDS011;2760;50.000;9.194;2022-07-23T01:06:01;9.03;;;8.10;;
5475;SDS011;2760;50.000;9.194;2022-07-23T01:08:28;13.93;;;9.20;;
5475;SDS011;2760;50.000;9.194;2022-07-23T01:10:57;9.97;;;8.90;;
5475;SDS011;2760;50.000;9.194;2022-07-23T01:13:26;12.90;;;9.20;;
5475;SDS011;2760;50.000;9.194;2022-07-23T01:15:53;12.00;;;10.00;;
5475;SDS011;2760;50.000;9.194;2022-07-23T01:18:20;12.00;;;8.80;;
5475;SDS011;2760;50.000;9.194;2022-07-23T01:20:47;13.00;;;9.50;;
5475;SDS011;2760;50.000;9.194;2022-07-23T01:23:16;10.20;;;8.90;;
5475;SDS011;2760;50.000;9.194;2022-07-23T01:25:52;11.97;;;10.57;;
5475;SDS011;2760;50.000;9.194;2022-07-23T01:28:20;9.67;;;8.60;;
5475;SDS011;2760;50.000;9.194;2022-07-23T01:30:48;10.83;;;9.93;;
5475;SDS011;2760;50.000;9.194;2022-07-23T01:33:16;10.40;;;9.33;;
5475;SDS011;2760;50.000;9.194;2022-07-23T01:35:43;9.50;;;8.70;;
5475;SDS011;2760;50.000;9.194;2022-07-23T01:38:13;10.10;;;9.10;;
5475;SDS011;2760;50.000;9.194;2022-07-23T01:40:43;9.40;;;8.40;;
5475;SDS011;2760;50.000;9.194;2022-07-23T01:43:10;9.60;;;8.60;;
5475;SDS011;2760;50.000;9.194;2022-07-23T01:45:38;9.87;;;8.50;;
5475;SDS011;2760;50.000;9.194;2022-07-23T01:48:06;11.07;;;9.87;;
5475;SDS011;2760;50.000;9.194;2022-07-23T01:50:37;12.83;;;8.93;;
5475;SDS011;2760;50.000;9.194;2022-07-23T01:53:22;10.10;;;9.00;;
5475;SDS011;2760;50.000;9.194;2022-07-23T01:55:51;9.33;;;8.43;;
5475;SDS011;2760;50.000;9.194;2022-07-23T01:58:18;13.17;;;9.30;;
5475;SDS011;2760;50.000;9.194;2022-07-23T02:00:46;12.00;;;10.33;;
5475;SDS011;2760;50.000;9.194;2022-07-23T02:03:13;10.37;;;9.30;;
5475;SDS011;2760;50.000;9.194;2022-07-23T02:05:40;10.43;;;9.33;;
5475;SDS011;2760;50.000;9.194;2022-07-23T02:08:07;10.13;;;8.67;;
5475;SDS011;2760;50.000;9.194;2022-07-23T02:10:35;10.60;;;9.57;;
5475;SDS011;2760;50.000;9.194;2022-07-23T02:13:04;13.43;;;9.73;;
5475;SDS011;2760;50.000;9.194;2022-07-23T02:15:32;12.07;;;10.00;;
5475;SDS011;2760;50.000;9.194;2022-07-23T02:17:59;12.37;;;9.20;;
5475;SDS011;2760;50.000;9.194;2022-07-23T02:20:27;12.40;;;10.50;;
5475;SDS011;2760;50.000;9.194;2022-07-23T02:22:54;11.60;;;10.00;;
5475;SDS011;2760;50.000;9.194;2022-07-23T02:25:22;12.17;;;10.00;;
5475;SDS011;2760;50.000;9.194;2022-07-23T02:27:55;11.73;;;9.00;;
5475;SDS011;2760;50.000;9.194;2022-07-23T02:30:24;18.77;;;9.77;;
5475;SDS011;2760;50.000;9.194;2022-07-23T02:32:52;14.60;;;10.43;;
5475;SDS011;2760;50.000;9.194;2022-07-23T02:35:19;10.53;;;9.53;;
5475;SDS011;2760;50.000;9.194;2022-07-23T02:37:46;16.83;;;10.40;;
5475;SDS011;2760;50.000;9.194;2022-07-23T02:40:14;14.80;;;10.07;;
5475;SDS011;2760;50.000;9.194;2022-07-23T02:42:42;12.03;;;9.50;;
5475;SDS011;2760;50.000;9.194;2022-07-23T02:45:09;13.60;;;10.53;;
5475;SDS011;2760;50.000;9.194;2022-07-23T02:47:40;11.60;;;8.70;;
5475;SDS011;2760;50.000;9.194;2022-07-23T02:50:08;19.00;;;8.90;;
5475;SDS011;2760;50.000;9.194;2022-07-23T02:52:37;9.33;;;7.67;;
5475;SDS011;2760;50.000;9.194;2022-07-23T02:55:06;10.40;;;8.57;;
5475;SDS011;2760;50.000;9.194;2022-07-23T02:57:34;10.73;;;8.27;;
5475;SDS011;2760;50.000;9.194;2022-07-23T03:00:01;9.70;;;8.40;;
5475;SDS011;2760;50.000;9.194;2022-07-23T03:02:28;10.50;;;7.83;;
5475;SDS011;2760;50.000;9.194;2022-07-23T03:04:57;10.70;;;7.97;;
5475;SDS011;2760;50.000;9.194;2022-07-23T03:07:25;10.70;;;7.40;;
5475;SDS011;2760;50.000;9.194;2022-07-23T03:09:53;10.93;;;7.50;;
5475;SDS011;2760;50.000;9.194;2022-07-23T03:12:21;8.17;;;7.37;;
5475;SDS011;2760;50.000;9.194;2022-07-23T03:14:49;8.73;;;7.40;;
5475;SDS011;2760;50.000;9.194;2022-07-23T03:17:16;8.27;;;6.67;;
5475;SDS011;2760;50.000;9.194;2022-07-23T03:19:43;8.77;;;7.30;;
5475;SDS011;2760;50.000;9.194;2022-07-23T03:22:12;11.60;;;7.87;;
5475;SDS011;2760;50.000;9.194;2022-07-23T03:24:39;10.53;;;7.33;;
5475;SDS011;2760;50.000;9.194;2022-07-23T03:27:32;12.23;;;7.87;;
5475;SDS011;2760;50.000;9.194;2022-07-23T03:29:59;9.30;;;7.60;;
5475;SDS011;2760;50.000;9.194;2022-07-23T03:32:27;8.00;;;7.10;;
5475;SDS011;2760;50.000;9.194;2022-07-23T03:34:55;8.80;;;7.07;;
5475;SDS011;2760;50.000;9.194;2022-07-23T03:37:24;8.27;;;7.33;;
5475;SDS011;2760;50.000;9.194;2022-07-23T03:39:51;9.00;;;6.97;;
5475;SDS011;2760;50.000;9.194;2022-07-23T03:42:19;15.40;;;7.50;;
5475;SDS011;2760;50.000;9.194;2022-07-23T03:44:46;8.17;;;7.23;;
5475;SDS011;2760;50.000;9.194;2022-07-23T03:47:13;9.77;;;6.87;;
5475;SDS011;2760;50.000;9.194;2022-07-23T03:49:42;10.27;;;8.57;;
5475;SDS011;2760;50.000;9.194;2022-07-23T03:52:10;15.87;;;9.93;;
5475;SDS011;2760;50.000;9.194;2022-07-23T03:54:38;18.47;;;8.87;;
5475;SDS011;2760;50.000;9.194;2022-07-23T03:57:05;12.33;;;8.70;;
5475;SDS011;2760;50.000;9.194;2022-07-23T03:59:32;11.13;;;9.20;;
5475;SDS011;2760;50.000;9.194;2022-07-23T04:01:59;19.17;;;8.90;;
5475;SDS011;2760;50.000;9.194;2022-07-23T04:04:29;10.77;;;9.40;;
5475;SDS011;2760;50.000;9.194;2022-07-23T04:06:57;8.67;;;7.77;;
5475;SDS011;2760;50.000;9.194;2022-07-23T04:09:30;9.60;;;8.13;;
5475;SDS011;2760;50.000;9.194;2022-07-23T04:11:58;9.63;;;7.80;;
5475;SDS011;2760;50.000;9.194;2022-07-23T04:14:26;8.77;;;7.30;;
5475;SDS011;2760;50.000;9.194;2022-07-23T04:16:53;10.17;;;7.50;;
5475;SDS011;2760;50.000;9.194;2022-07-23T04:19:21;8.03;;;6.60;;
5475;SDS011;2760;50.000;9.194;2022-07-23T04:21:58;8.67;;;7.00;;
5475;SDS011;2760;50.000;9.194;2022-07-23T04:24:26;9.43;;;7.20;;
5475;SDS011;2760;50.000;9.194;2022-07-23T04:26:54;10.83;;;7.43;;
5475;SDS011;2760;50.000;9.194;2022-07-23T04:29:22;9.30;;;7.33;;
5475;SDS011;2760;50.000;9.194;2022-07-23T04:31:49;13.60;;;8.47;;
5475;SDS011;2760;50.000;9.194;2022-07-23T04:34:17;12.20;;;7.70;;
5475;SDS011;2760;50.000;9.194;2022-07-23T04:36:44;8.77;;;6.67;;
5475;SDS011;2760;50.000;9.194;2022-07-23T04:39:12;7.30;;;6.23;;
5475;SDS011;2760;50.000;9.194;2022-07-23T04:41:40;9.33;;;6.90;;
5475;SDS011;2760;50.000;9.194;2022-07-23T04:44:08;8.63;;;6.63;;
5475;SDS011;2760;50.000;9.194;2022-07-23T04:46:37;11.30;;;7.60;;
5475;SDS011;2760;50.000;9.194;2022-07-23T04:49:06;9.17;;;6.87;;
5475;SDS011;2760;50.000;9.194;2022-07-23T04:51:33;6.90;;;6.27;;
5475;SDS011;2760;50.000;9.194;2022-07-23T04:54:00;10.97;;;7.00;;
5475;SDS011;2760;50.000;9.194;2022-07-23T04:56:28;9.57;;;7.50;;
5475;SDS011;2760;50.000;9.194;2022-07-23T04:58:55;10.30;;;7.40;;
5475;SDS011;2760;50.000;9.194;2022-07-23T05:01:22;7.70;;;6.90;;
5475;SDS011;2760;50.000;9.194;2022-07-23T05:03:50;9.40;;;6.67;;
5475;SDS011;2760;50.000;9.194;2022-07-23T05:06:18;9.03;;;6.97;;
5475;SDS011;2760;50.000;9.194;2022-07-23T05:08:46;7.50;;;6.23;;
5475;SDS011;2760;50.000;9.194;2022-07-23T05:11:13;7.10;;;6.50;;
5475;SDS011;2760;50.000;9.194;2022-07-23T05:13:40;11.77;;;7.27;;
5475;SDS011;2760;50.000;9.194;2022-07-23T05:16:07;8.13;;;7.07;;
5475;SDS011;2760;50.000;9.194;2022-07-23T05:18:35;7.90;;;7.00;;
5475;SDS011;2760;50.000;9.194;2022-07-23T05:21:04;8.10;;;7.20;;
5475;SDS011;2760;50.000;9.194;2022-07-23T05:23:33;10.53;;;7.97;;
5475;SDS011;2760;50.000;9.194;2022-07-23T05:26:00;10.60;;;7.67;;
5475;SDS011;2760;50.000;9.194;2022-07-23T05:28:28;7.90;;;7.20;;
5475;SDS011;2760;50.000;9.194;2022-07-23T05:30:56;10.30;;;7.20;;
5475;SDS011;2760;50.000;9.194;2022-07-23T05:33:24;14.13;;;7.13;;
5475;SDS011;2760;50.000;9.194;2022-07-23T05:35:52;9.50;;;7.40;;
5475;SDS011;2760;50.000;9.194;2022-07-23T05:38:29;13.03;;;7.73;;
5475;SDS011;2760;50.000;9.194;2022-07-23T05:40:58;7.60;;;6.77;;
5475;SDS011;2760;50.000;9.194;2022-07-23T05:43:28;8.90;;;6.23;;
5475;SDS011;2760;50.000;9.194;2022-07-23T05:45:57;8.83;;;7.40;;
5475;SDS011;2760;50.000;9.194;2022-07-23T05:48:24;8.20;;;7.40;;
5475;SDS011;2760;50.000;9.194;2022-07-23T05:51:01;9.17;;;7.27;;
5475;SDS011;2760;50.000;9.194;2022-07-23T05:53:33;7.20;;;6.00;;
5475;SDS011;2760;50.000;9.194;2022-07-23T05:56:05;7.13;;;6.53;;
5475;SDS011;2760;50.000;9.194;2022-07-23T05:58:34;7.23;;;6.53;;
5475;SDS011;2760;50.000;9.194;2022-07-23T06:01:02;8.10;;;6.90;;
5475;SDS011;2760;50.000;9.194;2022-07-23T06:03:38;6.63;;;6.00;;
5475;SDS011;2760;50.000;9.194;2022-07-23T06:06:05;10.00;;;7.50;;
5475;SDS011;2760;50.000;9.194;2022-07-23T06:08:34;8.27;;;7.07;;
5475;SDS011;2760;50.000;9.194;2022-07-23T06:11:02;9.30;;;7.37;;
5475;SDS011;2760;50.000;9.194;2022-07-23T06:13:29;9.40;;;7.83;;
5475;SDS011;2760;50.000;9.194;2022-07-23T06:15:56;8.30;;;6.90;;
5475;SDS011;2760;50.000;9.194;2022-07-23T06:18:24;8.73;;;6.93;;
5475;SDS011;2760;50.000;9.194;2022-07-23T06:20:53;7.30;;;6.70;;
5475;SDS011;2760;50.000;9.194;2022-07-23T06:23:20;8.23;;;6.70;;
5475;SDS011;2760;50.000;9.194;2022-07-23T06:25:49;8.40;;;7.50;;
5475;SDS011;2760;50.000;9.194;2022-07-23T06:28:16;7.67;;;6.87;;
5475;SDS011;2760;50.000;9.194;2022-07-23T06:30:43;8.60;;;7.80;;
5475;SDS011;2760;50.000;9.194;2022-07-23T06:33:10;10.07;;;7.80;;
5475;SDS011;2760;50.000;9.194;2022-07-23T06:35:38;8.47;;;7.63;;
5475;SDS011;2760;50.000;9.194;2022-07-23T06:38:06;9.70;;;8.07;;
5475;SDS011;2760;50.000;9.194;2022-07-23T06:40:34;9.23;;;8.27;;
5475;SDS011;2760;50.000;9.194;2022-07-23T06:43:02;9.63;;;7.80;;
5475;SDS011;2760;50.000;9.194;2022-07-23T06:45:35;18.33;;;8.70;;
5475;SDS011;2760;50.000;9.194;2022-07-23T06:48:03;13.37;;;8.40;;
5475;SDS011;2760;50.000;9.194;2022-07-23T06:50:30;10.67;;;7.87;;
5475;SDS011;2760;50.000;9.194;2022-07-23T06:52:57;10.23;;;8.20;;
5475;SDS011;2760;50.000;9.194;2022-07-23T06:55:26;10.10;;;8.97;;
5475;SDS011;2760;50.000;9.194;2022-07-23T06:57:53;10.50;;;7.77;;
5475;SDS011;2760;50.000;9.194;2022-07-23T07:00:22;13.37;;;8.20;;
5475;SDS011;2760;50.000;9.194;2022-07-23T07:02:53;11.77;;;9.30;;
5475;SDS011;2760;50.000;9.194;2022-07-23T07:05:20;9.80;;;8.77;;
5475;SDS011;2760;50.000;9.194;2022-07-23T07:07:48;11.67;;;9.37;;
5475;SDS011;2760;50.000;9.194;2022-07-23T07:10:15;10.70;;;8.70;;
5475;SDS011;2760;50.000;9.194;2022-07-23T07:12:42;12.97;;;10.00;;
5475;SDS011;2760;50.000;9.194;2022-07-23T07:15:09;13.17;;;9.80;;
5475;SDS011;2760;50.000;9.194;2022-07-23T07:17:39;14.23;;;9.50;;
5475;SDS011;2760;50.000;9.194;2022-07-23T07:20:07;12.70;;;9.67;;
5475;SDS011;2760;50.000;9.194;2022-07-23T07:22:36;10.90;;;9.00;;
5475;SDS011;2760;50.000;9.194;2022-07-23T07:25:03;11.43;;;8.30;;
5475;SDS011;2760;50.000;9.194;2022-07-23T07:27:31;9.93;;;8.93;;
5475;SDS011;2760;50.000;9.194;2022-07-23T07:29:58;9.97;;;8.47;;
5475;SDS011;2760;50.000;9.194;2022-07-23T07:32:25;10.53;;;7.73;;
5475;SDS011;2760;50.000;9.194;2022-07-23T07:34:53;9.50;;;7.73;;
5475;SDS011;2760;50.000;9.194;2022-07-23T07:37:20;8.07;;;7.27;;
5475;SDS011;2760;50.000;9.194;2022-07-23T07:39:48;9.60;;;7.73;;
5475;SDS011;2760;50.000;9.194;2022-07-23T07:42:15;10.70;;;7.60;;
5475;SDS011;2760;50.000;9.194;2022-07-23T07:44:42;11.47;;;8.23;;
5475;SDS011;2760;50.000;9.194;2022-07-23T07:47:09;9.00;;;7.27;;
5475;SDS011;2760;50.000;9.194;2022-07-23T07:49:36;11.53;;;8.20;;
5475;SDS011;2760;50.000;9.194;2022-07-23T07:52:04;10.10;;;8.73;;
5475;SDS011;2760;50.000;9.194;2022-07-23T07:54:32;11.80;;;8.10;;
5475;SDS011;2760;50.000;9.194;2022-07-23T07:56:59;17.93;;;7.93;;
5475;SDS011;2760;50.000;9.194;2022-07-23T07:59:26;9.20;;;7.40;;
5475;SDS011;2760;50.000;9.194;2022-07-23T08:01:54;11.33;;;7.80;;
5475;SDS011;2760;50.000;9.194;2022-07-23T08:04:22;9.50;;;8.50;;
5475;SDS011;2760;50.000;9.194;2022-07-23T08:06:49;10.63;;;6.60;;
5475;SDS011;2760;50.000;9.194;2022-07-23T08:09:17;8.27;;;6.67;;
5475;SDS011;2760;50.000;9.194;2022-07-23T08:11:44;9.57;;;7.20;;
5475;SDS011;2760;50.000;9.194;2022-07-23T08:14:11;7.73;;;7.03;;
5475;SDS011;2760;50.000;9.194;2022-07-23T08:16:38;7.83;;;6.57;;
5475;SDS011;2760;50.000;9.194;2022-07-23T08:19:06;8.20;;;6.80;;
5475;SDS011;2760;50.000;9.194;2022-07-23T08:21:33;8.90;;;7.00;;
5475;SDS011;2760;50.000;9.194;2022-07-23T08:24:00;9.07;;;8.07;;
5475;SDS011;2760;50.000;9.194;2022-07-23T08:26:28;8.43;;;7.63;;
5475;SDS011;2760;50.000;9.194;2022-07-23T08:28:55;11.50;;;7.30;;
5475;SDS011;2760;50.000;9.194;2022-07-23T08:31:23;9.73;;;7.30;;
5475;SDS011;2760;50.000;9.194;2022-07-23T08:33:50;9.33;;;7.60;;
5475;SDS011;2760;50.000;9.194;2022-07-23T08:36:17;7.57;;;6.73;;
5475;SDS011;2760;50.000;9.194;2022-07-23T08:38:44;8.77;;;7.10;;
5475;SDS011;2760;50.000;9.194;2022-07-23T08:41:11;9.77;;;7.70;;
5475;SDS011;2760;50.000;9.194;2022-07-23T08:43:40;11.40;;;7.80;;
5475;SDS011;2760;50.000;9.194;2022-07-23T08:46:11;7.90;;;7.00;;
5475;SDS011;2760;50.000;9.194;2022-07-23T08:48:40;8.40;;;7.33;;
5475;SDS011;2760;50.000;9.194;2022-07-23T08:51:27;8.53;;;7.63;;
5475;SDS011;2760;50.000;9.194;2022-07-23T08:53:55;8.33;;;7.47;;
5475;SDS011;2760;50.000;9.194;2022-07-23T08:56:23;7.20;;;6.50;;
5475;SDS011;2760;50.000;9.194;2022-07-23T08:58:51;7.83;;;6.80;;
5475;SDS011;2760;50.000;9.194;2022-07-23T09:01:19;7.33;;;6.63;;
5475;SDS011;2760;50.000;9.194;2022-07-23T09:03:46;7.47;;;6.77;;
5475;SDS011;2760;50.000;9.194;2022-07-23T09:06:13;9.43;;;7.80;;
5475;SDS011;2760;50.000;9.194;2022-07-23T09:08:41;7.67;;;6.87;;
5475;SDS011;2760;50.000;9.194;2022-07-23T09:11:10;9.83;;;7.53;;
5475;SDS011;2760;50.000;9.194;2022-07-23T09:13:41;7.93;;;6.93;;
5475;SDS011;2760;50.000;9.194;2022-07-23T09:16:11;9.33;;;6.60;;
5475;SDS011;2760;50.000;9.194;2022-07-23T09:18:41;8.73;;;7.83;;
5475;SDS011;2760;50.000;9.194;2022-07-23T09:21:11;7.73;;;7.00;;
5475;SDS011;2760;50.000;9.194;2022-07-23T09:23:47;8.80;;;7.10;;
5475;SDS011;2760;50.000;9.194;2022-07-23T09:26:18;8.63;;;7.73;;
5475;SDS011;2760;50.000;9.194;2022-07-23T09:28:51;7.63;;;6.77;;
5475;SDS011;2760;50.000;9.194;2022-07-23T09:31:22;8.13;;;7.10;;
5475;SDS011;2760;50.000;9.194;2022-07-23T09:34:01;8.20;;;6.47;;
5475;SDS011;2760;50.000;9.194;2022-07-23T09:36:34;8.47;;;6.80;;
5475;SDS011;2760;50.000;9.194;2022-07-23T09:39:02;10.90;;;7.37;;
5475;SDS011;2760;50.000;9.194;2022-07-23T09:41:33;7.97;;;7.17;;
5475;SDS011;2760;50.000;9.194;2022-07-23T09:44:06;7.77;;;7.00;;
5475;SDS011;2760;50.000;9.194;2022-07-23T09:46:36;7.23;;;6.43;;
5475;SDS011;2760;50.000;9.194;2022-07-23T09:49:12;6.50;;;5.83;;
5475;SDS011;2760;50.000;9.194;2022-07-23T09:51:45;7.40;;;6.17;;
5475;SDS011;2760;50.000;9.194;2022-07-23T09:54:25;7.00;;;6.40;;
5475;SDS011;2760;50.000;9.194;2022-07-23T09:56:56;7.13;;;6.40;;
5475;SDS011;2760;50.000;9.194;2022-07-23T09:59:25;6.87;;;6.17;;
5475;SDS011;2760;50.000;9.194;2022-07-23T10:01:58;7.77;;;6.67;;
5475;SDS011;2760;50.000;9.194;2022-07-23T10:04:27;6.60;;;5.90;;
5475;SDS011;2760;50.000;9.194;2022-07-23T10:07:12;7.90;;;6.80;;
5475;SDS011;2760;50.000;9.194;2022-07-23T10:10:02;7.03;;;6.43;;
5475;SDS011;2760;50.000;9.194;2022-07-23T10:12:30;6.57;;;6.00;;
5475;SDS011;2760;50.000;9.194;2022-07-23T10:15:15;8.90;;;6.60;;
5475;SDS011;2760;50.000;9.194;2022-07-23T10:17:43;8.07;;;6.70;;
5475;SDS011;2760;50.000;9.194;2022-07-23T10:20:10;7.97;;;6.60;;
5475;SDS011;2760;50.000;9.194;2022-07-23T10:22:38;6.63;;;5.90;;
5475;SDS011;2760;50.000;9.194;2022-07-23T10:25:12;6.70;;;6.10;;
5475;SDS011;2760;50.000;9.194;2022-07-23T10:27:56;7.83;;;6.73;;
5475;SDS011;2760;50.000;9.194;2022-07-23T10:30:36;6.90;;;6.20;;
5475;SDS011;2760;50.000;9.194;2022-07-23T10:33:15;7.33;;;6.63;;
5475;SDS011;2760;50.000;9.194;2022-07-23T10:35:55;7.30;;;6.60;;
5475;SDS011;2760;50.000;9.194;2022-07-23T10:38:30;8.40;;;6.43;;
5475;SDS011;2760;50.000;9.194;2022-07-23T10:41:01;6.83;;;6.20;;
5475;SDS011;2760;50.000;9.194;2022-07-23T10:43:30;20.87;;;13.07;;
5475;SDS011;2760;50.000;9.194;2022-07-23T10:46:21;7.00;;;6.40;;
5475;SDS011;2760;50.000;9.194;2022-07-23T10:54:45;7.57;;;5.83;;
5475;SDS011;2760;50.000;9.194;2022-07-23T10:57:14;8.07;;;7.20;;
5475;SDS011;2760;50.000;9.194;2022-07-23T11:02:57;7.10;;;6.40;;
5475;SDS011;2760;50.000;9.194;2022-07-23T11:05:38;9.50;;;6.17;;
5475;SDS011;2760;50.000;9.194;2022-07-23T11:08:11;8.00;;;7.17;;
5475;SDS011;2760;50.000;9.194;2022-07-23T11:10:45;7.57;;;6.87;;
5475;SDS011;2760;50.000;9.194;2022-07-23T11:13:28;12.20;;;6.83;;
5475;SDS011;2760;50.000;9.194;2022-07-23T11:16:07;7.03;;;6.43;;
5475;SDS011;2760;50.000;9.194;2022-07-23T11:18:54;6.90;;;6.20;;
5475;SDS011;2760;50.000;9.194;2022-07-23T11:24:10;7.20;;;6.53;;
5475;SDS011;2760;50.000;9.194;2022-07-23T11:26:46;7.90;;;6.73;;
5475;SDS011;2760;50.000;9.194;2022-07-23T11:35:18;10.30;;;6.80;;
5475;SDS011;2760;50.000;9.194;2022-07-23T11:37:48;12.57;;;7.53;;
5475;SDS011;2760;50.000;9.194;2022-07-23T11:40:19;6.87;;;6.33;;
5475;SDS011;2760;50.000;9.194;2022-07-23T11:42:53;6.77;;;6.13;;
5475;SDS011;2760;50.000;9.194;2022-07-23T11:45:23;7.53;;;6.73;;
5475;SDS011;2760;50.000;9.194;2022-07-23T11:47:51;7.57;;;6.70;;
5475;SDS011;2760;50.000;9.194;2022-07-23T11:50:18;7.33;;;6.00;;
5475;SDS011;2760;50.000;9.194;2022-07-23T11:52:44;6.10;;;5.60;;
5475;SDS011;2760;50.000;9.194;2022-07-23T11:55:13;10.17;;;6.70;;
5475;SDS011;2760;50.000;9.194;2022-07-23T11:57:42;7.40;;;5.93;;
5475;SDS011;2760;50.000;9.194;2022-07-23T12:00:10;6.50;;;5.80;;
5475;SDS011;2760;50.000;9.194;2022-07-23T12:02:41;7.83;;;6.97;;
5475;SDS011;2760;50.000;9.194;2022-07-23T12:05:11;7.23;;;6.60;;
5475;SDS011;2760;50.000;9.194;2022-07-23T12:07:39;7.83;;;7.03;;
5475;SDS011;2760;50.000;9.194;2022-07-23T12:10:14;12.43;;;6.97;;
5475;SDS011;2760;50.000;9.194;2022-07-23T12:12:42;7.40;;;6.70;;
5475;SDS011;2760;50.000;9.194;2022-07-23T12:15:11;6.97;;;6.37;;
5475;SDS011;2760;50.000;9.194;2022-07-23T12:17:40;7.93;;;5.93;;
5475;SDS011;2760;50.000;9.194;2022-07-23T12:20:09;7.70;;;7.00;;
5475;SDS011;2760;50.000;9.194;2022-07-23T12:22:41;6.47;;;5.87;;
5475;SDS011;2760;50.000;9.194;2022-07-23T12:25:10;7.07;;;5.90;;
5475;SDS011;2760;50.000;9.194;2022-07-23T12:27:42;6.97;;;6.27;;
5475;SDS011;2760;50.000;9.194;2022-07-23T12:30:20;6.33;;;5.70;;
5475;SDS011;2760;50.000;9.194;2022-07-23T12:32:49;6.20;;;5.60;;
5475;SDS011;2760;50.000;9.194;2022-07-23T12:35:18;8.13;;;6.13;;
5475;SDS011;2760;50.000;9.194;2022-07-23T12:37:46;5.93;;;5.33;;
5475;SDS011;2760;50.000;9.194;2022-07-23T12:40:24;5.83;;;5.27;;
5475;SDS011;2760;50.000;9.194;2022-07-23T12:42:53;7.20;;;5.53;;
5475;SDS011;2760;50.000;9.194;2022-07-23T12:45:23;7.10;;;5.90;;
5475;SDS011;2760;50.000;9.194;2022-07-23T12:47:55;6.40;;;5.80;;
5475;SDS011;2760;50.000;9.194;2022-07-23T12:50:41;9.00;;;5.83;;
5475;SDS011;2760;50.000;9.194;2022-07-23T12:53:14;7.60;;;5.37;;
5475;SDS011;2760;50.000;9.194;2022-07-23T12:55:45;5.40;;;4.60;;
5475;SDS011;2760;50.000;9.194;2022-07-23T12:58:13;6.20;;;5.57;;
5475;SDS011;2760;50.000;9.194;2022-07-23T13:00:59;6.13;;;5.50;;
5475;SDS011;2760;50.000;9.194;2022-07-23T13:03:29;6.33;;;5.53;;
5475;SDS011;2760;50.000;9.194;2022-07-23T13:05:59;6.83;;;5.63;;
5475;SDS011;2760;50.000;9.194;2022-07-23T13:08:28;5.50;;;5.00;;
5475;SDS011;2760;50.000;9.194;2022-07-23T13:10:57;6.27;;;5.67;;
5475;SDS011;2760;50.000;9.194;2022-07-23T13:13:30;6.63;;;5.83;;
5475;SDS011;2760;50.000;9.194;2022-07-23T13:15:59;5.60;;;5.07;;
5475;SDS011;2760;50.000;9.194;2022-07-23T13:18:26;6.00;;;5.50;;
5475;SDS011;2760;50.000;9.194;2022-07-23T13:20:54;5.93;;;5.40;;
5475;SDS011;2760;50.000;9.194;2022-07-23T13:23:22;5.50;;;5.00;;
5475;SDS011;2760;50.000;9.194;2022-07-23T13:25:49;5.50;;;5.00;;
5475;SDS011;2760;50.000;9.194;2022-07-23T13:28:18;5.40;;;4.93;;
5475;SDS011;2760;50.000;9.194;2022-07-23T13:30:46;7.20;;;5.97;;
5475;SDS011;2760;50.000;9.194;2022-07-23T13:33:15;5.13;;;4.50;;
5475;SDS011;2760;50.000;9.194;2022-07-23T13:35:43;5.13;;;4.70;;
5475;SDS011;2760;50.000;9.194;2022-07-23T13:38:10;6.53;;;4.87;;
5475;SDS011;2760;50.000;9.194;2022-07-23T13:40:39;5.60;;;4.93;;
5475;SDS011;2760;50.000;9.194;2022-07-23T13:43:08;5.13;;;4.60;;
5475;SDS011;2760;50.000;9.194;2022-07-23T13:45:38;6.67;;;5.43;;
5475;SDS011;2760;50.000;9.194;2022-07-23T13:48:07;5.73;;;5.20;;
5475;SDS011;2760;50.000;9.194;2022-07-23T13:50:35;6.00;;;5.50;;
5475;SDS011;2760;50.000;9.194;2022-07-23T13:53:03;6.03;;;5.00;;
5475;SDS011;2760;50.000;9.194;2022-07-23T13:55:31;5.10;;;4.60;;
5475;SDS011;2760;50.000;9.194;2022-07-23T13:57:59;5.53;;;5.00;;
5475;SDS011;2760;50.000;9.194;2022-07-23T14:00:27;5.80;;;5.20;;
5475;SDS011;2760;50.000;9.194;2022-07-23T14:02:57;5.17;;;4.73;;
5475;SDS011;2760;50.000;9.194;2022-07-23T14:05:24;6.47;;;5.10;;
5475;SDS011;2760;50.000;9.194;2022-07-23T14:07:52;5.53;;;4.70;;
5475;SDS011;2760;50.000;9.194;2022-07-23T14:10:20;6.27;;;5.70;;
5475;SDS011;2760;50.000;9.194;2022-07-23T14:12:48;8.37;;;4.90;;
5475;SDS011;2760;50.000;9.194;2022-07-23T14:15:19;6.77;;;5.30;;
5475;SDS011;2760;50.000;9.194;2022-07-23T14:17:46;5.07;;;4.57;;
5475;SDS011;2760;50.000;9.194;2022-07-23T14:20:15;5.13;;;4.73;;
5475;SDS011;2760;50.000;9.194;2022-07-23T14:22:42;4.90;;;4.40;;
5475;SDS011;2760;50.000;9.194;2022-07-23T14:25:09;5.80;;;5.03;;
5475;SDS011;2760;50.000;9.194;2022-07-23T14:27:36;5.80;;;5.20;;
5475;SDS011;2760;50.000;9.194;2022-07-23T14:30:05;5.90;;;5.40;;
5475;SDS011;2760;50.000;9.194;2022-07-23T14:32:34;11.80;;;5.47;;
5475;SDS011;2760;50.000;9.194;2022-07-23T14:35:01;9.00;;;5.40;;
5475;SDS011;2760;50.000;9.194;2022-07-23T14:37:30;5.80;;;5.20;;
5475;SDS011;2760;50.000;9.194;2022-07-23T14:39:57;5.43;;;4.90;;
5475;SDS011;2760;50.000;9.194;2022-07-23T14:42:26;8.40;;;5.87;;
5475;SDS011;2760;50.000;9.194;2022-07-23T14:44:53;5.43;;;4.93;;
5475;SDS011;2760;50.000;9.194;2022-07-23T14:47:20;5.93;;;5.37;;
5475;SDS011;2760;50.000;9.194;2022-07-23T14:49:47;7.37;;;5.43;;
5475;SDS011;2760;50.000;9.194;2022-07-23T14:52:14;6.13;;;5.27;;
5475;SDS011;2760;50.000;9.194;2022-07-23T14:54:42;6.43;;;5.13;;
5475;SDS011;2760;50.000;9.194;2022-07-23T14:57:09;5.27;;;4.77;;
5475;SDS011;2760;50.000;9.194;2022-07-23T14:59:36;6.73;;;5.50;;
5475;SDS011;2760;50.000;9.194;2022-07-23T15:02:03;9.53;;;5.43;;
5475;SDS011;2760;50.000;9.194;2022-07-23T15:04:30;5.87;;;5.33;;
5475;SDS011;2760;50.000;9.194;2022-07-23T15:06:57;4.93;;;4.53;;
5475;SDS011;2760;50.000;9.194;2022-07-23T15:09:24;7.33;;;6.00;;
5475;SDS011;2760;50.000;9.194;2022-07-23T15:11:52;7.13;;;5.10;;
5475;SDS011;2760;50.000;9.194;2022-07-23T15:14:19;5.83;;;5.33;;
5475;SDS011;2760;50.000;9.194;2022-07-23T15:16:47;8.20;;;5.60;;
5475;SDS011;2760;50.000;9.194;2022-07-23T15:19:14;6.10;;;5.53;;
5475;SDS011;2760;50.000;9.194;2022-07-23T15:21:41;5.70;;;5.20;;
5475;SDS011;2760;50.000;9.194;2022-07-23T15:24:08;5.13;;;4.63;;
5475;SDS011;2760;50.000;9.194;2022-07-23T15:26:35;6.10;;;5.20;;
5475;SDS011;2760;50.000;9.194;2022-07-23T15:29:03;7.63;;;5.40;;
5475;SDS011;2760;50.000;9.194;2022-07-23T15:31:31;5.73;;;5.03;;
5475;SDS011;2760;50.000;9.194;2022-07-23T15:33:58;6.13;;;5.63;;
5475;SDS011;2760;50.000;9.194;2022-07-23T15:36:25;6.53;;;5.60;;
5475;SDS011;2760;50.000;9.194;2022-07-23T15:38:52;6.10;;;5.60;;
5475;SDS011;2760;50.000;9.194;2022-07-23T15:41:19;5.37;;;4.90;;